createdAt,value
2022-10-31T00:00:48.003Z,25.50
2022-10-31T00:03:15.924Z,23.57
2022-10-31T00:05:46.073Z,23.00
2022-10-31T00:08:13.800Z,23.53
2022-10-31T00:10:43.929Z,21.43
2022-10-31T00:13:12.809Z,22.37
2022-10-31T00:15:42.097Z,21.80
2022-10-31T00:18:11.274Z,21.43
2022-10-31T00:20:39.271Z,22.77
2022-10-31T00:23:08.407Z,21.67
2022-10-31T00:25:38.479Z,21.07
2022-10-31T00:28:09.551Z,21.23
2022-10-31T00:30:37.275Z,21.53
2022-10-31T00:33:05.622Z,21.73
2022-10-31T00:35:34.133Z,21.67
2022-10-31T00:38:02.004Z,21.07
2022-10-31T00:40:29.745Z,20.57
2022-10-31T00:42:57.767Z,20.93
2022-10-31T00:45:27.286Z,20.43
2022-10-31T00:47:54.996Z,20.77
2022-10-31T00:50:22.671Z,20.47
2022-10-31T00:52:50.473Z,19.70
2022-10-31T00:55:18.153Z,20.03
2022-10-31T00:57:48.467Z,20.00
2022-10-31T01:00:16.925Z,18.43
2022-10-31T01:02:47.292Z,19.97
2022-10-31T01:05:15.411Z,19.33
2022-10-31T01:07:43.941Z,19.70
2022-10-31T01:10:13.177Z,20.13
2022-10-31T01:12:42.229Z,19.67
2022-10-31T01:15:11.418Z,20.07
2022-10-31T01:17:39.233Z,19.73
2022-10-31T01:20:11.929Z,20.63
2022-10-31T01:22:39.952Z,22.60
2022-10-31T01:25:09.681Z,20.77
2022-10-31T01:27:37.574Z,20.93
2022-10-31T01:30:06.395Z,19.40
2022-10-31T01:32:34.128Z,19.80
2022-10-31T01:35:02.111Z,20.43
2022-10-31T01:37:33.035Z,21.57
2022-10-31T01:40:00.732Z,21.43
2022-10-31T01:42:28.437Z,21.20
2022-10-31T01:45:00.124Z,20.83
2022-10-31T01:47:43.271Z,20.77
2022-10-31T01:50:25.698Z,19.83
2022-10-31T01:52:55.498Z,20.00
2022-10-31T01:55:29.996Z,18.73
2022-10-31T01:58:03.894Z,19.97
2022-10-31T02:00:32.017Z,20.87
2022-10-31T02:03:00.809Z,19.53
2022-10-31T02:05:31.596Z,19.30
2022-10-31T02:08:04.590Z,19.67
2022-10-31T02:10:34.911Z,20.80
2022-10-31T02:13:05.287Z,20.73
2022-10-31T02:15:34.186Z,20.73
2022-10-31T02:18:02.829Z,20.17
2022-10-31T02:20:35.170Z,22.20
2022-10-31T02:23:43.989Z,21.20
2022-10-31T02:26:34.135Z,21.47
2022-10-31T02:29:30.589Z,19.80
2022-10-31T02:32:07.729Z,20.80
2022-10-31T02:34:44.926Z,20.83
2022-10-31T02:37:18.933Z,21.33
2022-10-31T02:39:56.424Z,21.00
2022-10-31T02:42:31.365Z,20.90
2022-10-31T02:45:06.224Z,21.03
2022-10-31T02:47:38.761Z,22.17
2022-10-31T02:50:10.845Z,21.87
2022-10-31T02:52:38.602Z,20.87
2022-10-31T02:55:14.651Z,21.33
2022-10-31T02:57:43.845Z,21.23
2022-10-31T03:00:15.048Z,21.10
2022-10-31T03:02:58.591Z,20.77
2022-10-31T03:05:39.761Z,21.03
2022-10-31T03:08:16.749Z,21.27
2022-10-31T03:10:49.458Z,21.53
2022-10-31T03:13:29.994Z,21.33
2022-10-31T03:16:08.691Z,21.33
2022-10-31T03:18:42.865Z,20.83
2022-10-31T03:21:15.471Z,19.87
2022-10-31T03:23:46.855Z,20.80
2022-10-31T03:26:17.458Z,20.23
2022-10-31T03:28:48.456Z,20.37
2022-10-31T03:31:20.331Z,20.13
2022-10-31T03:33:51.356Z,20.13
2022-10-31T03:36:19.873Z,19.90
2022-10-31T03:38:48.649Z,19.87
2022-10-31T03:41:23.826Z,19.30
2022-10-31T03:44:03.073Z,20.40
2022-10-31T03:46:30.922Z,19.20
2022-10-31T03:49:01.468Z,20.10
2022-10-31T03:51:34.623Z,20.00
2022-10-31T03:54:10.894Z,20.13
2022-10-31T03:56:42.839Z,19.00
2022-10-31T03:59:17.479Z,19.33
2022-10-31T04:01:50.804Z,19.57
2022-10-31T04:04:21.595Z,19.73
2022-10-31T04:06:51.108Z,18.43
2022-10-31T04:09:21.470Z,19.37
2022-10-31T04:11:53.607Z,18.33
2022-10-31T04:14:23.473Z,17.77
2022-10-31T04:16:51.243Z,19.37
2022-10-31T04:19:20.449Z,19.20
2022-10-31T04:21:48.149Z,19.20
2022-10-31T04:24:15.898Z,19.50
2022-10-31T04:26:43.673Z,18.17
2022-10-31T04:29:11.400Z,17.70
2022-10-31T04:31:39.163Z,18.07
2022-10-31T04:34:08.280Z,18.50
2022-10-31T04:36:37.457Z,18.20
2022-10-31T04:39:05.492Z,17.07
2022-10-31T04:41:33.216Z,17.70
2022-10-31T04:44:00.931Z,17.20
2022-10-31T04:46:28.668Z,16.77
2022-10-31T04:48:56.545Z,16.27
2022-10-31T04:51:24.483Z,17.87
2022-10-31T04:53:53.592Z,17.03
2022-10-31T04:56:21.299Z,17.20
2022-10-31T04:58:49.076Z,17.90
2022-10-31T05:01:16.853Z,16.87
2022-10-31T05:03:44.743Z,17.43
2022-10-31T05:06:12.457Z,16.80
2022-10-31T05:08:40.498Z,17.07
2022-10-31T05:11:09.593Z,16.20
2022-10-31T05:13:37.315Z,16.47
2022-10-31T05:16:05.248Z,16.50
2022-10-31T05:18:33.425Z,17.27
2022-10-31T05:21:01.172Z,15.60
2022-10-31T05:23:28.870Z,16.77
2022-10-31T05:25:56.575Z,16.80
2022-10-31T05:28:25.731Z,16.13
2022-10-31T05:30:53.482Z,16.27
2022-10-31T05:33:21.203Z,16.40
2022-10-31T05:35:49.295Z,16.17
2022-10-31T05:38:17.132Z,16.20
2022-10-31T05:40:44.959Z,16.17
2022-10-31T05:43:12.664Z,15.33
2022-10-31T05:45:41.830Z,14.97
2022-10-31T05:48:10.364Z,15.63
2022-10-31T05:50:38.104Z,14.77
2022-10-31T05:53:08.053Z,14.03
2022-10-31T05:55:35.807Z,14.67
2022-10-31T05:58:04.021Z,15.17
2022-10-31T06:00:32.068Z,15.53
2022-10-31T06:03:02.203Z,15.30
2022-10-31T06:05:30.587Z,58.03
2022-10-31T06:07:58.869Z,22.73
2022-10-31T06:10:29.736Z,25.33
2022-10-31T06:12:57.505Z,17.30
2022-10-31T06:15:25.287Z,16.03
2022-10-31T06:18:05.980Z,15.90
2022-10-31T06:20:34.086Z,15.37
2022-10-31T06:23:02.601Z,16.10
2022-10-31T06:25:39.427Z,16.80
2022-10-31T06:28:07.362Z,15.73
2022-10-31T06:30:35.046Z,15.37
2022-10-31T06:33:07.512Z,15.90
2022-10-31T06:35:35.397Z,16.03
2022-10-31T06:38:03.544Z,16.47
2022-10-31T06:40:31.666Z,16.00
2022-10-31T06:43:00.219Z,16.27
2022-10-31T06:45:28.528Z,16.13
2022-10-31T06:48:16.735Z,16.57
2022-10-31T06:50:46.272Z,17.23
2022-10-31T06:53:15.066Z,16.73
2022-10-31T06:55:43.592Z,17.27
2022-10-31T06:58:13.067Z,15.87
2022-10-31T07:00:40.890Z,17.37
2022-10-31T07:03:12.354Z,17.43
2022-10-31T07:05:40.525Z,17.30
2022-10-31T07:08:13.060Z,22.33
2022-10-31T07:10:42.726Z,81.53
2022-10-31T07:13:13.502Z,44.70
2022-10-31T07:15:43.431Z,28.57
2022-10-31T07:18:13.457Z,25.23
2022-10-31T07:20:41.263Z,25.73
2022-10-31T07:23:11.596Z,28.00
2022-10-31T07:25:39.320Z,29.57
2022-10-31T07:28:10.102Z,29.53
2022-10-31T07:30:38.744Z,28.50
2022-10-31T07:33:07.234Z,29.93
2022-10-31T07:35:35.816Z,31.37
2022-10-31T07:38:12.293Z,30.83
2022-10-31T07:40:40.717Z,31.93
2022-10-31T07:43:10.126Z,32.73
2022-10-31T07:45:43.127Z,32.07
2022-10-31T07:48:11.043Z,33.10
2022-10-31T07:50:38.800Z,32.53
2022-10-31T07:53:09.982Z,33.63
2022-10-31T07:55:39.797Z,39.87
2022-10-31T07:58:09.848Z,36.60
2022-10-31T08:00:41.681Z,33.67
2022-10-31T08:03:11.351Z,35.53
2022-10-31T08:05:42.047Z,33.30
2022-10-31T08:08:10.696Z,35.20
2022-10-31T08:10:41.449Z,32.30
2022-10-31T08:13:10.889Z,34.80
2022-10-31T08:15:40.881Z,33.93
2022-10-31T08:18:12.824Z,35.43
2022-10-31T08:20:40.945Z,29.70
2022-10-31T08:23:12.119Z,34.27
2022-10-31T08:25:42.890Z,32.60
2022-10-31T08:28:12.328Z,31.73
2022-10-31T08:30:40.747Z,30.30
2022-10-31T08:33:11.674Z,32.13
2022-10-31T08:35:39.462Z,31.87
2022-10-31T08:38:08.729Z,34.93
2022-10-31T08:40:37.916Z,35.30
2022-10-31T08:43:08.539Z,53.40
2022-10-31T08:45:38.578Z,35.17
2022-10-31T08:48:08.547Z,33.70
2022-10-31T08:50:37.812Z,36.63
2022-10-31T08:53:09.879Z,33.83
2022-10-31T08:55:39.069Z,34.80
2022-10-31T08:58:14.691Z,36.10
2022-10-31T09:00:42.861Z,35.77
2022-10-31T09:03:13.859Z,36.10
2022-10-31T09:05:42.340Z,36.87
2022-10-31T09:08:16.027Z,36.13
2022-10-31T09:10:45.363Z,34.70
2022-10-31T09:13:16.344Z,35.40
2022-10-31T09:15:46.166Z,33.73
2022-10-31T09:18:15.068Z,33.73
2022-10-31T09:20:44.210Z,32.87
2022-10-31T09:23:13.581Z,32.90
2022-10-31T09:25:46.151Z,30.30
2022-10-31T09:28:20.372Z,29.43
2022-10-31T09:30:49.372Z,28.70
2022-10-31T09:33:17.105Z,29.87
2022-10-31T09:35:44.869Z,28.37
2022-10-31T09:38:15.545Z,27.73
2022-10-31T09:40:45.097Z,26.57
2022-10-31T09:43:26.328Z,28.10
2022-10-31T09:46:02.891Z,26.30
2022-10-31T09:48:45.201Z,26.70
2022-10-31T09:51:17.335Z,26.37
2022-10-31T09:53:51.362Z,25.97
2022-10-31T09:56:22.485Z,26.03
2022-10-31T09:58:56.210Z,25.03
2022-10-31T10:01:45.032Z,22.87
2022-10-31T10:04:28.705Z,23.87
2022-10-31T10:06:56.672Z,21.90
2022-10-31T10:09:28.131Z,23.93
2022-10-31T10:12:08.642Z,23.23
2022-10-31T10:14:56.049Z,23.43
2022-10-31T10:17:35.103Z,22.40
2022-10-31T10:20:20.922Z,22.60
2022-10-31T10:22:54.765Z,22.60
2022-10-31T10:25:24.869Z,23.63
2022-10-31T10:28:04.172Z,21.20
2022-10-31T10:30:39.306Z,22.37
2022-10-31T10:33:12.480Z,20.83
2022-10-31T10:35:45.138Z,21.83
2022-10-31T10:38:19.430Z,21.60
2022-10-31T10:40:48.375Z,20.53
2022-10-31T10:43:26.306Z,21.33
2022-10-31T10:46:35.891Z,20.67
2022-10-31T10:49:13.671Z,21.17
2022-10-31T10:51:58.306Z,22.17
2022-10-31T10:54:45.080Z,19.03
2022-10-31T10:57:34.785Z,18.80
2022-10-31T11:00:05.353Z,19.10
2022-10-31T11:02:35.132Z,19.10
2022-10-31T11:05:04.534Z,19.23
2022-10-31T11:07:40.370Z,18.33
2022-10-31T11:10:15.972Z,18.40
2022-10-31T11:12:45.227Z,19.13
2022-10-31T11:15:22.197Z,18.93
2022-10-31T11:17:54.483Z,19.07
2022-10-31T11:20:32.245Z,18.27
2022-10-31T11:23:18.438Z,19.17
2022-10-31T11:25:54.817Z,20.20
2022-10-31T11:28:22.635Z,18.30
2022-10-31T11:30:53.238Z,18.90
2022-10-31T11:33:31.634Z,19.03
2022-10-31T11:35:59.742Z,18.33
2022-10-31T11:38:34.697Z,18.73
2022-10-31T11:41:11.869Z,19.17
2022-10-31T11:43:41.049Z,16.93
2022-10-31T11:46:13.406Z,17.30
2022-10-31T11:48:49.561Z,17.03
2022-10-31T11:51:23.132Z,16.20
2022-10-31T11:53:56.921Z,15.00
2022-10-31T11:56:28.475Z,14.47
2022-10-31T11:59:01.301Z,14.30
2022-10-31T12:01:31.240Z,14.27
2022-10-31T12:04:10.657Z,16.13
2022-10-31T12:06:40.026Z,15.23
2022-10-31T12:09:20.862Z,15.57
2022-10-31T12:12:05.056Z,15.03
2022-10-31T12:14:39.104Z,14.13
2022-10-31T12:17:15.569Z,34.80
2022-10-31T12:20:02.781Z,14.10
2022-10-31T12:22:41.807Z,12.37
2022-10-31T12:25:34.699Z,13.33
2022-10-31T12:28:16.406Z,13.13
2022-10-31T12:30:58.161Z,14.80
2022-10-31T12:33:41.284Z,13.40
2022-10-31T12:36:30.643Z,11.77
2022-10-31T12:39:25.310Z,11.43
2022-10-31T12:41:58.119Z,11.40
2022-10-31T12:44:50.781Z,11.10
2022-10-31T12:47:34.972Z,10.77
2022-10-31T12:50:18.733Z,10.97
2022-10-31T12:52:58.994Z,12.30
2022-10-31T12:55:50.107Z,12.03
2022-10-31T12:58:24.132Z,11.93
2022-10-31T13:00:58.778Z,11.27
2022-10-31T13:03:34.616Z,12.33
2022-10-31T13:06:07.613Z,11.03
2022-10-31T13:08:43.846Z,10.77
2022-10-31T13:11:17.591Z,10.37
2022-10-31T13:13:50.600Z,10.47
2022-10-31T13:16:20.648Z,10.27
2022-10-31T13:18:53.061Z,10.07
2022-10-31T13:21:24.281Z,10.13
2022-10-31T13:23:53.783Z,9.93
2022-10-31T13:26:33.662Z,9.97
2022-10-31T13:29:08.785Z,9.53
2022-10-31T13:31:36.558Z,10.70
2022-10-31T13:34:11.478Z,10.97
2022-10-31T13:36:44.167Z,10.70
2022-10-31T13:39:25.525Z,11.43
2022-10-31T13:41:59.241Z,16.37
2022-10-31T13:44:30.530Z,11.60
2022-10-31T13:47:00.220Z,10.43
2022-10-31T13:49:40.371Z,10.27
2022-10-31T13:52:23.904Z,10.23
2022-10-31T13:54:56.991Z,11.43
2022-10-31T13:57:34.388Z,10.80
2022-10-31T14:00:09.505Z,11.50
2022-10-31T14:02:38.860Z,11.53
2022-10-31T14:05:25.862Z,11.17
2022-10-31T14:07:55.423Z,10.53
2022-10-31T14:10:29.472Z,10.17
2022-10-31T14:13:06.699Z,9.87
2022-10-31T14:15:34.826Z,9.20
2022-10-31T14:18:05.009Z,9.60
2022-10-31T14:20:39.876Z,9.57
2022-10-31T14:23:29.330Z,9.33
2022-10-31T14:26:09.473Z,10.03
2022-10-31T14:28:38.035Z,9.03
2022-10-31T14:31:35.944Z,9.27
2022-10-31T14:34:09.364Z,9.57
2022-10-31T14:36:46.073Z,9.37
2022-10-31T14:39:20.528Z,8.53
2022-10-31T14:42:03.281Z,11.17
2022-10-31T14:44:55.220Z,9.93
2022-10-31T14:47:36.492Z,9.47
2022-10-31T14:50:23.350Z,9.73
2022-10-31T14:52:53.155Z,9.83
2022-10-31T14:55:21.823Z,10.57
2022-10-31T14:57:53.177Z,10.70
2022-10-31T15:00:23.457Z,11.10
2022-10-31T15:03:00.892Z,11.70
2022-10-31T15:05:30.369Z,12.60
2022-10-31T15:07:59.731Z,15.93
2022-10-31T15:10:30.712Z,16.73
2022-10-31T15:12:58.902Z,12.50
2022-10-31T15:15:28.496Z,11.03
2022-10-31T15:18:01.151Z,11.10
2022-10-31T15:20:32.649Z,11.00
2022-10-31T15:23:02.032Z,12.80
2022-10-31T15:25:37.163Z,11.53
2022-10-31T15:28:15.144Z,11.43
2022-10-31T15:30:52.663Z,11.13
2022-10-31T15:33:25.894Z,11.73
2022-10-31T15:35:58.760Z,11.80
2022-10-31T15:38:27.734Z,11.77
2022-10-31T15:41:00.648Z,12.67
2022-10-31T15:43:33.742Z,12.43
2022-10-31T15:46:02.434Z,12.90
2022-10-31T15:48:32.891Z,11.00
2022-10-31T15:51:01.167Z,12.47
2022-10-31T15:53:36.840Z,11.13
2022-10-31T15:56:08.042Z,12.67
2022-10-31T15:58:43.787Z,12.93
2022-10-31T16:01:25.563Z,11.53
2022-10-31T16:04:07.654Z,12.07
2022-10-31T16:06:36.691Z,12.97
2022-10-31T16:09:06.174Z,13.87
2022-10-31T16:11:39.223Z,13.63
2022-10-31T16:14:09.575Z,23.13
2022-10-31T16:16:44.688Z,12.93
2022-10-31T16:19:20.832Z,13.37
2022-10-31T16:21:50.817Z,12.53
2022-10-31T16:24:24.640Z,11.87
2022-10-31T16:26:54.636Z,11.97
2022-10-31T16:29:34.330Z,12.60
2022-10-31T16:32:02.268Z,12.43
2022-10-31T16:34:31.502Z,11.77
2022-10-31T16:36:59.162Z,12.33
2022-10-31T16:39:26.892Z,12.67
2022-10-31T16:41:57.996Z,13.23
2022-10-31T16:44:27.672Z,14.50
2022-10-31T16:47:11.163Z,14.50
2022-10-31T16:49:40.287Z,16.37
2022-10-31T16:52:08.151Z,13.63
2022-10-31T16:54:36.162Z,16.27
2022-10-31T16:57:06.615Z,15.03
2022-10-31T16:59:37.206Z,16.00
2022-10-31T17:02:06.350Z,18.17
2022-10-31T17:04:34.165Z,16.70
2022-10-31T17:07:03.281Z,16.70
2022-10-31T17:09:31.073Z,21.20
2022-10-31T17:11:59.580Z,17.70
2022-10-31T17:14:27.777Z,31.60
2022-10-31T17:16:58.107Z,19.00
2022-10-31T17:19:25.919Z,18.93
2022-10-31T17:21:53.913Z,19.03
2022-10-31T17:24:23.184Z,18.27
2022-10-31T17:26:50.955Z,18.57
2022-10-31T17:29:18.651Z,17.33
2022-10-31T17:31:46.457Z,21.70
2022-10-31T17:34:14.137Z,17.93
2022-10-31T17:36:41.842Z,18.73
2022-10-31T17:39:10.887Z,18.77
2022-10-31T17:41:39.975Z,18.17
2022-10-31T17:44:07.677Z,15.63
2022-10-31T17:46:35.505Z,17.87
2022-10-31T17:49:04.970Z,15.30
2022-10-31T17:51:32.758Z,17.10
2022-10-31T17:54:00.478Z,16.43
2022-10-31T17:56:28.397Z,15.63
2022-10-31T17:58:58.258Z,14.50
2022-10-31T18:01:26.298Z,15.97
2022-10-31T18:03:54.213Z,16.50
2022-10-31T18:06:23.992Z,14.63
2022-10-31T18:08:51.718Z,13.37
2022-10-31T18:11:22.960Z,17.33
2022-10-31T18:13:57.583Z,16.33
2022-10-31T18:16:25.866Z,16.17
2022-10-31T18:18:54.744Z,15.67
2022-10-31T18:21:22.484Z,15.70
2022-10-31T18:23:54.957Z,15.03
2022-10-31T18:26:23.664Z,16.63
2022-10-31T18:28:51.818Z,15.30
2022-10-31T18:31:21.258Z,16.03
2022-10-31T18:33:49.023Z,15.07
2022-10-31T18:36:16.710Z,14.47
2022-10-31T18:38:45.974Z,15.53
2022-10-31T18:41:15.010Z,16.57
2022-10-31T18:43:43.259Z,14.53
2022-10-31T18:46:17.133Z,16.50
2022-10-31T18:48:47.200Z,15.93
2022-10-31T18:51:18.260Z,16.40
2022-10-31T18:53:52.769Z,15.97
2022-10-31T18:56:24.515Z,16.47
2022-10-31T18:58:52.586Z,17.93
2022-10-31T19:01:22.314Z,16.63
2022-10-31T19:03:56.439Z,17.37
2022-10-31T19:06:24.445Z,17.40
2022-10-31T19:08:58.508Z,17.50
2022-10-31T19:11:26.516Z,15.77
2022-10-31T19:13:54.267Z,18.57
2022-10-31T19:16:22.153Z,14.83
2022-10-31T19:18:49.930Z,15.97
2022-10-31T19:21:19.443Z,16.90
2022-10-31T19:23:47.386Z,15.80
2022-10-31T19:26:15.355Z,14.90
2022-10-31T19:28:43.239Z,15.03
2022-10-31T19:31:11.365Z,15.03
2022-10-31T19:33:39.209Z,14.47
2022-10-31T19:36:09.670Z,17.53
2022-10-31T19:38:41.992Z,18.17
2022-10-31T19:41:11.524Z,20.13
2022-10-31T19:43:39.818Z,19.60
2022-10-31T19:46:17.369Z,20.77
2022-10-31T19:48:57.276Z,19.60
2022-10-31T19:51:25.003Z,19.93
2022-10-31T19:53:55.184Z,20.80
2022-10-31T19:56:24.496Z,19.80
2022-10-31T19:58:52.293Z,67.73
2022-10-31T20:01:24.285Z,41.83
2022-10-31T20:03:52.563Z,20.03
2022-10-31T20:06:23.678Z,20.13
2022-10-31T20:08:55.066Z,20.17
2022-10-31T20:11:24.927Z,20.03
2022-10-31T20:13:53.360Z,18.90
2022-10-31T20:16:21.096Z,19.73
2022-10-31T20:18:48.919Z,17.67
2022-10-31T20:21:22.339Z,15.93
2022-10-31T20:23:50.547Z,16.80
2022-10-31T20:26:22.364Z,16.27
2022-10-31T20:28:51.724Z,17.10
2022-10-31T20:31:21.525Z,16.33
2022-10-31T20:33:49.928Z,16.70
2022-10-31T20:36:19.487Z,16.70
2022-10-31T20:38:47.805Z,16.23
2022-10-31T20:41:18.032Z,16.50
2022-10-31T20:43:46.188Z,16.60
2022-10-31T20:46:19.327Z,18.27
2022-10-31T20:48:48.451Z,17.20
2022-10-31T20:51:21.380Z,17.07
2022-10-31T20:53:49.426Z,17.97
2022-10-31T20:56:18.737Z,17.63
2022-10-31T20:58:46.997Z,18.80
2022-10-31T21:01:18.270Z,19.33
2022-10-31T21:03:46.448Z,17.93
2022-10-31T21:06:14.826Z,19.40
2022-10-31T21:08:43.394Z,19.23
2022-10-31T21:11:12.660Z,19.73
2022-10-31T21:13:41.929Z,19.13
2022-10-31T21:16:12.641Z,20.03
2022-10-31T21:18:43.363Z,19.43
2022-10-31T21:21:12.933Z,20.47
2022-10-31T21:23:41.331Z,21.50
2022-10-31T21:26:11.021Z,22.13
2022-10-31T21:28:39.074Z,20.60
2022-10-31T21:31:08.233Z,22.30
2022-10-31T21:33:36.924Z,23.07
2022-10-31T21:36:06.994Z,23.10
2022-10-31T21:38:35.652Z,23.87
2022-10-31T21:41:05.352Z,22.67
2022-10-31T21:43:35.724Z,26.20
2022-10-31T21:46:07.766Z,25.90
2022-10-31T21:48:39.039Z,26.70
2022-10-31T21:51:10.392Z,27.33
2022-10-31T21:53:56.441Z,26.93
2022-10-31T21:56:24.589Z,27.53
2022-10-31T21:58:53.372Z,28.07
2022-10-31T22:01:21.791Z,29.90
2022-10-31T22:03:50.354Z,28.13
2022-10-31T22:06:19.548Z,27.30
2022-10-31T22:08:47.753Z,28.30
2022-10-31T22:11:17.480Z,30.60
2022-10-31T22:13:47.094Z,32.47
2022-10-31T22:16:17.252Z,32.53
2022-10-31T22:18:45.527Z,33.50
2022-10-31T22:21:15.887Z,32.40
2022-10-31T22:23:45.639Z,34.10
2022-10-31T22:26:16.264Z,33.37
2022-10-31T22:28:45.756Z,31.70
2022-10-31T22:31:15.246Z,29.63
2022-10-31T22:33:43.055Z,29.03
2022-10-31T22:36:12.488Z,28.87
2022-10-31T22:38:42.404Z,26.87
2022-10-31T22:41:13.182Z,27.70
2022-10-31T22:43:41.338Z,25.87
2022-10-31T22:46:16.247Z,25.17
2022-10-31T22:48:46.157Z,24.87
2022-10-31T22:51:16.716Z,23.40
2022-10-31T22:53:47.474Z,22.67
2022-10-31T22:56:19.026Z,22.87
2022-10-31T22:58:53.110Z,23.50
2022-10-31T23:01:22.683Z,21.27
2022-10-31T23:03:51.544Z,21.30
2022-10-31T23:06:21.193Z,21.30
2022-10-31T23:08:49.849Z,20.47
2022-10-31T23:11:21.535Z,20.07
2022-10-31T23:14:08.859Z,20.30
2022-10-31T23:16:37.306Z,19.40
2022-10-31T23:19:08.086Z,19.03
2022-10-31T23:21:54.735Z,18.93
2022-10-31T23:24:34.749Z,17.70
2022-10-31T23:27:11.207Z,18.60
2022-10-31T23:29:45.428Z,18.73
2022-10-31T23:32:18.908Z,19.03
2022-10-31T23:34:47.442Z,19.70
2022-10-31T23:37:15.743Z,19.27
2022-10-31T23:39:43.735Z,17.40
2022-10-31T23:42:13.781Z,18.87
2022-10-31T23:44:41.520Z,19.17
2022-10-31T23:47:09.895Z,18.63
2022-10-31T23:49:37.763Z,20.17
2022-10-31T23:52:06.351Z,18.73
2022-10-31T23:54:35.072Z,18.90
2022-10-31T23:57:03.183Z,19.53
2022-10-31T23:59:32.911Z,19.60
